createdAt,value
2022-09-16T06:14:38.530Z,999.43
2022-09-16T06:24:38.559Z,999.31
2022-09-16T06:34:38.712Z,999.49
2022-09-16T06:44:38.491Z,999.32
2022-09-16T06:54:38.601Z,999.37
2022-09-16T07:04:38.600Z,999.18
2022-09-16T07:14:38.683Z,999.25
2022-09-16T07:24:38.731Z,999.35
2022-09-16T07:34:38.671Z,999.33
2022-09-16T07:44:38.431Z,999.31
2022-09-16T07:54:38.638Z,999.36
2022-09-16T08:04:38.499Z,999.33
2022-09-16T08:14:38.599Z,999.31
2022-09-16T08:24:38.441Z,999.41
2022-09-16T08:34:38.850Z,999.42
2022-09-16T08:44:38.710Z,999.20
2022-09-16T08:54:39.150Z,999.22
2022-09-16T09:04:38.840Z,999.30
2022-09-16T09:14:39.104Z,999.51
2022-09-16T09:24:39.171Z,999.20
2022-09-16T09:34:41.657Z,999.25
2022-09-16T09:44:39.036Z,999.22
2022-09-16T09:54:39.239Z,998.91
2022-09-16T10:04:38.983Z,998.97
2022-09-16T10:14:39.083Z,998.84
2022-09-16T10:24:38.845Z,998.78
2022-09-16T10:34:39.024Z,999.10
2022-09-16T10:44:39.035Z,998.71
2022-09-16T10:54:39.009Z,998.53
2022-09-16T11:04:39.019Z,998.62
2022-09-16T11:14:38.981Z,998.31
2022-09-16T11:24:38.898Z,998.24
2022-09-16T11:34:38.914Z,998.07
2022-09-16T11:44:38.885Z,998.18
2022-09-16T11:54:38.866Z,998.18
2022-09-16T12:04:38.886Z,998.06
2022-09-16T12:14:38.884Z,997.99
2022-09-16T12:24:38.939Z,997.85
2022-09-16T12:34:39.086Z,997.83
2022-09-16T12:44:39.267Z,997.75
2022-09-16T12:54:51.097Z,998.34
2022-09-16T13:04:39.344Z,998.50
2022-09-16T13:14:39.445Z,998.31
2022-09-16T13:24:39.342Z,998.09
2022-09-16T13:34:39.307Z,998.05
2022-09-16T13:44:39.449Z,998.05
2022-09-16T13:54:53.511Z,997.91
2022-09-16T14:04:39.473Z,997.75
2022-09-16T14:14:47.776Z,997.72
2022-09-16T14:24:39.406Z,997.49
2022-09-16T14:34:39.476Z,997.63
2022-09-16T14:44:39.450Z,997.75
2022-09-16T14:54:39.431Z,997.70
2022-09-16T15:04:39.464Z,997.53
2022-09-16T15:14:39.326Z,997.45
2022-09-16T15:24:39.440Z,997.50
2022-09-16T15:34:39.449Z,997.44
2022-09-16T15:44:39.353Z,997.37
2022-09-16T15:54:39.520Z,997.43
2022-09-16T16:04:39.550Z,997.29
2022-09-16T16:14:39.679Z,997.26
2022-09-16T16:24:39.518Z,997.34
2022-09-16T16:34:39.480Z,997.32
2022-09-16T16:44:39.561Z,997.33
2022-09-16T16:54:39.510Z,997.47
2022-09-16T17:04:39.460Z,997.64
2022-09-16T17:14:39.616Z,997.72
2022-09-16T17:24:39.572Z,997.64
2022-09-16T17:34:39.587Z,997.78
2022-09-16T17:44:39.707Z,997.86
2022-09-16T17:54:39.589Z,997.89
2022-09-16T18:04:39.538Z,997.70
2022-09-16T18:14:39.647Z,997.78
2022-09-16T18:24:39.598Z,997.86
2022-09-16T18:34:39.744Z,997.79
2022-09-16T18:44:39.608Z,997.76
2022-09-16T18:54:39.630Z,997.89
2022-09-16T19:04:39.597Z,997.92
2022-09-16T19:14:39.708Z,997.99
